Time;durP1;ratioP1;P1;durP2;ratioP2;P2;SDS_P1;SDS_P2;PMS_P1;PMS_P2;Temp;Humidity;BMP_temperature;BMP_pressure;BME280_temperature;BME280_humidity;BME280_pressure;Samples;Min_cycle;Max_cycle;Signal;HPM_P1;HPM_P2
2021/01/10 00:01:29;;;;;;;29.77;14.50;;;18.90;95.30;;;;;;5057714;28;20044;-68
2021/01/10 00:03:57;;;;;;;23.77;12.63;;;18.80;95.10;;;;;;5056066;28;20013;-68
2021/01/10 00:06:24;;;;;;;29.08;14.35;;;19.00;95.30;;;;;;5055317;28;20032;-68
2021/01/10 00:08:50;;;;;;;35.33;14.75;;;18.90;94.50;;;;;;5055627;28;20027;-68
2021/01/10 00:11:17;;;;;;;30.27;13.27;;;18.90;94.80;;;;;;5057277;28;20052;-67
2021/01/10 00:13:43;;;;;;;30.50;14.93;;;19.00;94.90;;;;;;5055714;28;20035;-67
2021/01/10 00:16:10;;;;;;;31.77;15.23;;;18.80;94.70;;;;;;5055256;28;20032;-67
2021/01/10 00:18:37;;;;;;;39.90;14.05;;;18.70;94.50;;;;;;5056170;28;20189;-68
2021/01/10 00:21:04;;;;;;;41.38;14.57;;;18.70;94.50;;;;;;5057740;28;20963;-68
2021/01/10 00:23:30;;;;;;;29.08;13.68;;;18.60;94.80;;;;;;5055954;28;20024;-68
2021/01/10 00:25:57;;;;;;;27.05;11.93;;;18.60;94.70;;;;;;5056062;28;20100;-68
2021/01/10 00:28:23;;;;;;;37.45;12.60;;;18.30;95.70;;;;;;5055779;28;20644;-67
2021/01/10 00:30:50;;;;;;;32.55;10.02;;;18.10;96.70;;;;;;5056032;28;20024;-66
2021/01/10 00:33:17;;;;;;;27.48;9.27;;;18.00;98.40;;;;;;5055329;28;20025;-67
2021/01/10 00:35:43;;;;;;;30.50;9.32;;;17.70;99.10;;;;;;5057682;28;20215;-68
2021/01/10 00:38:10;;;;;;;34.65;10.85;;;17.60;99.60;;;;;;5055811;28;20300;-68
2021/01/10 00:40:36;;;;;;;35.83;11.27;;;17.50;99.30;;;;;;5056792;28;20481;-68
2021/01/10 00:43:04;;;;;;;32.30;10.82;;;17.40;99.30;;;;;;5055514;28;20025;-67
2021/01/10 00:45:31;;;;;;;29.02;10.38;;;17.40;99.70;;;;;;5055696;28;20037;-67
2021/01/10 00:47:58;;;;;;;36.45;12.00;;;16.80;99.90;;;;;;5056592;28;20041;-67
2021/01/10 00:50:24;;;;;;;33.90;10.82;;;16.70;99.90;;;;;;5057503;28;20032;-67
2021/01/10 00:52:51;;;;;;;35.92;11.73;;;16.40;99.90;;;;;;5053502;28;20120;-67
2021/01/10 00:55:17;;;;;;;26.40;10.85;;;16.10;99.90;;;;;;5055359;28;20028;-68
2021/01/10 00:57:44;;;;;;;28.75;10.48;;;15.70;99.90;;;;;;5056216;28;20040;-67
2021/01/10 01:00:17;;;;;;;32.67;11.43;;;15.40;99.90;;;;;;5054905;28;20094;-68
2021/01/10 01:02:46;;;;;;;24.02;9.45;;;15.30;99.90;;;;;;5055551;28;20651;-68
2021/01/10 01:05:13;;;;;;;28.10;9.05;;;15.20;99.90;;;;;;5055843;28;20016;-68
2021/01/10 01:07:40;;;;;;;27.75;9.68;;;15.10;99.90;;;;;;5055979;28;20070;-68
2021/01/10 01:10:07;;;;;;;30.88;9.30;;;15.00;99.90;;;;;;5054572;28;20047;-70
2021/01/10 01:12:33;;;;;;;28.52;9.52;;;14.90;99.90;;;;;;5055357;28;20020;-67
2021/01/10 01:15:00;;;;;;;27.35;9.60;;;14.70;99.90;;;;;;5056379;28;20052;-69
2021/01/10 01:17:27;;;;;;;33.97;10.98;;;14.60;99.90;;;;;;5057325;28;20123;-70
2021/01/10 01:19:53;;;;;;;26.85;10.73;;;14.40;99.90;;;;;;5054996;28;20051;-67
2021/01/10 01:22:20;;;;;;;29.60;10.25;;;14.40;99.90;;;;;;5055205;28;20797;-68
2021/01/10 01:24:46;;;;;;;28.55;10.98;;;14.30;99.90;;;;;;5056262;28;20017;-68
2021/01/10 01:27:13;;;;;;;36.83;12.57;;;14.30;99.90;;;;;;5054389;28;20025;-68
2021/01/10 01:29:40;;;;;;;28.85;11.30;;;14.20;99.90;;;;;;5053788;28;20031;-68
2021/01/10 01:32:06;;;;;;;34.60;12.35;;;14.20;99.90;;;;;;5056468;28;20083;-68
2021/01/10 01:34:33;;;;;;;23.83;12.63;;;14.20;99.90;;;;;;5054635;28;20059;-68
2021/01/10 01:37:00;;;;;;;29.88;12.27;;;14.20;99.90;;;;;;5055044;28;20036;-69
2021/01/10 01:39:26;;;;;;;26.80;11.93;;;14.30;99.90;;;;;;5054294;28;20154;-68
2021/01/10 01:41:53;;;;;;;30.00;10.38;;;14.40;99.90;;;;;;5056096;28;20165;-68
2021/01/10 01:44:19;;;;;;;28.33;12.32;;;14.40;99.90;;;;;;5054827;28;20033;-68
2021/01/10 01:46:46;;;;;;;26.10;10.13;;;14.40;99.90;;;;;;5055011;28;20362;-68
2021/01/10 01:49:13;;;;;;;22.15;9.48;;;14.30;99.90;;;;;;5053946;28;20043;-67
2021/01/10 01:51:41;;;;;;;26.65;9.68;;;14.00;99.90;;;;;;5055221;28;20100;-67
2021/01/10 01:54:08;;;;;;;26.13;9.23;;;13.90;99.90;;;;;;5055687;28;20421;-68
2021/01/10 01:56:35;;;;;;;34.03;10.32;;;13.90;99.90;;;;;;5054806;28;20043;-67
2021/01/10 01:59:05;;;;;;;28.10;9.88;;;13.80;99.90;;;;;;5053763;28;20051;-68
2021/01/10 02:01:33;;;;;;;27.50;10.60;;;13.80;99.90;;;;;;5055025;28;20060;-68
2021/01/10 02:04:22;;;;;;;29.42;9.88;;;13.50;99.90;;;;;;5057226;28;20035;-68
2021/01/10 02:06:59;;;;;;;35.63;13.27;;;13.40;99.90;;;;;;5057886;28;20032;-68
2021/01/10 02:09:29;;;;;;;64.45;20.05;;;13.40;99.90;;;;;;5057980;28;20081;-67
2021/01/10 02:11:57;;;;;;;94.72;24.30;;;13.50;99.90;;;;;;5058754;28;20032;-66
2021/01/10 02:14:26;;;;;;;72.22;21.15;;;13.50;99.90;;;;;;5058644;28;20023;-70
2021/01/10 02:16:56;;;;;;;62.42;18.65;;;13.50;99.90;;;;;;5057516;28;20044;-69
2021/01/10 02:19:37;;;;;;;65.75;20.98;;;13.50;99.90;;;;;;5058781;28;20024;-72
2021/01/10 02:22:08;;;;;;;75.15;21.05;;;13.50;99.90;;;;;;5058823;28;20096;-74
2021/01/10 02:24:35;;;;;;;72.63;19.58;;;13.50;99.90;;;;;;5057671;28;20075;-74
2021/01/10 02:27:06;;;;;;;66.03;21.48;;;13.50;99.90;;;;;;5059468;28;20070;-79
2021/01/10 02:29:37;;;;;;;63.00;21.05;;;13.40;99.90;;;;;;5056840;28;20335;-79
2021/01/10 02:32:06;;;;;;;75.07;22.65;;;13.20;99.90;;;;;;5059902;28;20042;-79
2021/01/10 02:34:34;;;;;;;;;;;12.90;99.90;;;;;;5059964;28;20095;-78
2021/01/10 02:37:21;;;;;;;67.00;22.35;;;12.80;99.90;;;;;;5042365;28;20022;-78
2021/01/10 02:40:40;;;;;;;77.55;26.25;;;12.60;99.90;;;;;;5059583;28;20050;-78
2021/01/10 02:43:09;;;;;;;56.80;22.30;;;12.70;99.90;;;;;;5022066;28;20033;-79
2021/01/10 02:45:40;;;;;;;61.15;22.17;;;12.70;99.90;;;;;;5018789;28;20374;-79
2021/01/10 02:48:11;;;;;;;56.63;25.42;;;12.70;99.90;;;;;;5044789;28;20148;-79
2021/01/10 02:50:39;;;;;;;56.63;26.70;;;12.70;99.90;;;;;;5061071;28;20684;-79
2021/01/10 02:53:06;;;;;;;68.47;24.98;;;12.80;99.90;;;;;;5056672;28;20103;-78
2021/01/10 02:55:32;;;;;;;69.32;27.33;;;12.70;99.90;;;;;;5057733;28;20039;-79
2021/01/10 02:58:08;;;;;;;83.90;31.05;;;12.50;99.90;;;;;;5058635;28;20041;-76
2021/01/10 03:00:35;;;;;;;71.97;28.65;;;12.20;99.90;;;;;;5056891;28;20032;-74
2021/01/10 03:03:02;;;;;;;59.90;26.30;;;12.20;99.90;;;;;;5057340;28;20027;-74
2021/01/10 03:05:30;;;;;;;59.10;25.88;;;12.10;99.90;;;;;;5056456;28;20025;-75
2021/01/10 03:07:57;;;;;;;72.13;27.55;;;12.00;99.90;;;;;;5057441;28;20021;-76
2021/01/10 03:10:24;;;;;;;62.83;25.48;;;12.00;99.90;;;;;;5058770;28;20025;-74
2021/01/10 03:12:54;;;;;;;63.83;27.02;;;11.90;99.90;;;;;;5057684;28;20427;-75
2021/01/10 03:15:22;;;;;;;58.10;26.15;;;11.80;99.90;;;;;;5057555;28;20111;-75
2021/01/10 03:17:51;;;;;;;55.88;25.83;;;11.80;99.90;;;;;;5038391;28;20230;-73
2021/01/10 03:20:20;;;;;;;57.15;24.48;;;11.90;99.90;;;;;;5056359;28;20333;-73
2021/01/10 03:22:48;;;;;;;62.35;25.67;;;12.00;99.90;;;;;;5055954;28;20041;-76
2021/01/10 03:25:25;;;;;;;54.13;26.90;;;12.10;99.90;;;;;;5056210;28;20107;-75
2021/01/10 03:27:51;;;;;;;54.40;25.38;;;12.00;99.90;;;;;;5056914;28;20063;-74
2021/01/10 03:30:19;;;;;;;51.28;24.88;;;11.80;99.90;;;;;;5056383;28;20126;-73
2021/01/10 03:32:46;;;;;;;68.97;29.77;;;11.80;99.90;;;;;;5058278;28;20025;-74
2021/01/10 03:35:15;;;;;;;63.78;26.95;;;11.90;99.90;;;;;;5056933;28;20027;-72
2021/01/10 03:37:43;;;;;;;59.03;29.95;;;12.00;99.90;;;;;;5057592;28;20052;-72
2021/01/10 03:40:10;;;;;;;76.38;32.05;;;11.80;99.90;;;;;;5056749;28;20025;-73
2021/01/10 03:42:37;;;;;;;104.88;41.40;;;11.90;99.90;;;;;;5056895;28;20021;-74
2021/01/10 03:45:09;;;;;;;65.10;32.10;;;11.90;99.90;;;;;;5057633;28;20052;-74
2021/01/10 03:47:36;;;;;;;54.33;27.58;;;11.70;99.90;;;;;;5055032;28;20032;-72
2021/01/10 03:50:04;;;;;;;53.05;24.98;;;11.50;99.90;;;;;;5055990;28;20028;-75
2021/01/10 03:52:31;;;;;;;63.97;26.40;;;11.50;99.90;;;;;;5057696;28;20032;-75
2021/01/10 03:54:57;;;;;;;70.88;27.45;;;11.40;99.90;;;;;;5040379;28;20102;-76
2021/01/10 03:57:24;;;;;;;61.83;25.20;;;11.20;99.90;;;;;;5038718;28;20039;-75
2021/01/10 03:59:51;;;;;;;58.70;25.75;;;11.10;99.90;;;;;;5055882;28;20032;-75
2021/01/10 04:02:17;;;;;;;58.28;26.40;;;11.00;99.90;;;;;;5055920;28;20104;-74
2021/01/10 04:04:44;;;;;;;55.55;25.70;;;11.00;99.90;;;;;;5039047;28;20024;-75
2021/01/10 04:07:11;;;;;;;63.13;27.17;;;11.10;99.90;;;;;;5055511;28;20032;-75
2021/01/10 04:09:37;;;;;;;53.75;27.20;;;11.20;99.90;;;;;;5055727;28;20093;-75
2021/01/10 04:12:04;;;;;;;53.13;27.38;;;11.40;99.90;;;;;;5041091;28;20032;-75
2021/01/10 04:14:31;;;;;;;52.83;28.88;;;11.40;99.90;;;;;;5055940;28;20125;-75
2021/01/10 04:16:57;;;;;;;57.83;28.55;;;11.50;99.90;;;;;;5057335;28;20370;-75
2021/01/10 04:19:24;;;;;;;58.60;29.30;;;11.50;99.90;;;;;;5057332;28;20030;-74
2021/01/10 04:21:51;;;;;;;62.95;29.40;;;11.20;99.90;;;;;;5055618;28;20035;-74
2021/01/10 04:24:17;;;;;;;63.65;29.33;;;11.00;99.90;;;;;;5056928;28;20207;-74
2021/01/10 04:26:50;;;;;;;59.67;27.50;;;10.90;99.90;;;;;;5056500;28;20021;-75
2021/01/10 04:29:19;;;;;;;59.35;29.83;;;10.90;99.90;;;;;;5057104;28;20097;-76
2021/01/10 04:31:47;;;;;;;55.33;28.05;;;10.80;99.90;;;;;;5055332;28;20086;-76
2021/01/10 04:34:14;;;;;;;56.65;28.10;;;10.70;99.90;;;;;;5055573;28;20040;-76
2021/01/10 04:36:41;;;;;;;50.15;28.40;;;10.70;99.90;;;;;;5056060;28;20387;-75
2021/01/10 04:39:08;;;;;;;56.10;28.05;;;10.60;99.90;;;;;;5037447;28;20029;-75
2021/01/10 04:41:35;;;;;;;56.00;29.05;;;10.70;99.90;;;;;;5054106;28;20095;-74
2021/01/10 04:44:01;;;;;;;52.20;29.77;;;10.80;99.90;;;;;;5055348;28;20068;-75
2021/01/10 04:46:30;;;;;;;58.08;28.35;;;10.90;99.90;;;;;;5053687;28;20032;-71
2021/01/10 04:48:57;;;;;;;52.70;28.58;;;10.90;99.90;;;;;;5054052;28;21601;-73
2021/01/10 04:51:28;;;;;;;59.60;30.05;;;10.90;99.90;;;;;;5054502;28;20025;-74
2021/01/10 04:54:02;;;;;;;58.53;30.17;;;10.80;99.90;;;;;;5055675;28;20074;-75
2021/01/10 04:56:30;;;;;;;52.42;31.35;;;10.80;99.90;;;;;;5055664;28;20043;-73
2021/01/10 04:59:03;;;;;;;66.95;31.17;;;10.60;99.90;;;;;;5054729;28;20067;-72
2021/01/10 05:01:50;;;;;;;59.95;29.83;;;10.30;99.90;;;;;;5054594;28;20032;-72
2021/01/10 05:04:20;;;;;;;57.53;29.75;;;10.30;99.90;;;;;;5055253;28;20086;-70
2021/01/10 05:06:47;;;;;;;52.58;30.20;;;10.30;99.90;;;;;;5055388;28;20025;-77
2021/01/10 05:09:14;;;;;;;63.05;29.50;;;10.30;99.90;;;;;;5053345;28;20032;-68
2021/01/10 05:11:41;;;;;;;64.28;31.40;;;10.30;99.90;;;;;;5052476;28;20051;-77
2021/01/10 05:14:08;;;;;;;51.85;28.08;;;10.20;99.90;;;;;;5053135;28;20445;-77
2021/01/10 05:16:35;;;;;;;61.03;30.65;;;10.30;99.90;;;;;;5037255;28;20465;-70
2021/01/10 05:19:03;;;;;;;65.32;31.48;;;10.20;99.90;;;;;;5055548;28;20024;-72
2021/01/10 05:21:29;;;;;;;51.67;28.60;;;10.20;99.90;;;;;;5054841;28;20045;-75
2021/01/10 05:26:34;;;;;;;54.60;31.20;;;10.10;99.90;;;;;;5214546;22;20052;-72
2021/01/10 05:29:08;;;;;;;53.20;28.40;;;10.00;99.90;;;;;;5055257;28;20035;-73
2021/01/10 05:31:43;;;;;;;58.78;30.63;;;10.20;99.90;;;;;;5043299;28;20025;-73
2021/01/10 05:34:16;;;;;;;64.30;32.40;;;10.10;99.90;;;;;;5055472;28;20052;-73
2021/01/10 05:36:43;;;;;;;53.70;31.25;;;10.20;99.90;;;;;;5054423;28;20039;-73
2021/01/10 05:41:56;;;;;;;60.25;31.73;;;10.20;99.90;;;;;;5400533;22;20465;-73
2021/01/10 05:44:25;;;;;;;63.47;30.95;;;10.30;99.90;;;;;;5017821;28;20034;-73
2021/01/10 05:47:03;;;;;;;57.65;32.15;;;10.30;99.90;;;;;;5016039;28;20091;-74
2021/01/10 05:49:31;;;;;;;61.33;32.58;;;10.10;99.90;;;;;;5017487;28;20036;-75
2021/01/10 05:52:09;;;;;;;63.13;34.58;;;9.90;99.90;;;;;;5016525;28;20077;-73
2021/01/10 05:54:40;;;;;;;57.38;34.13;;;9.80;99.90;;;;;;5017400;28;20033;-74
2021/01/10 05:57:17;;;;;;;65.82;39.88;;;9.90;99.90;;;;;;5018695;28;20042;-73
2021/01/10 05:59:51;;;;;;;57.97;33.83;;;10.00;99.90;;;;;;5017309;28;20400;-73
2021/01/10 06:02:34;;;;;;;56.75;30.27;;;10.20;99.90;;;;;;5016008;28;20025;-73
2021/01/10 06:05:20;;;;;;;55.67;34.40;;;10.10;99.90;;;;;;5020943;28;20029;-72
2021/01/10 06:07:48;;;;;;;67.50;33.58;;;9.90;99.90;;;;;;5021325;28;20029;-73
2021/01/10 06:10:28;;;;;;;66.43;35.55;;;9.70;99.90;;;;;;5021776;28;20025;-73
2021/01/10 06:13:06;;;;;;;56.70;33.58;;;9.60;99.90;;;;;;5019973;28;20097;-72
2021/01/10 06:15:36;;;;;;;63.55;34.45;;;9.50;99.90;;;;;;5021134;28;20037;-73
2021/01/10 06:18:04;;;;;;;66.22;34.97;;;9.50;99.90;;;;;;5019410;28;20060;-72
2021/01/10 06:20:32;;;;;;;55.60;32.75;;;9.50;99.90;;;;;;5021376;28;20122;-73
2021/01/10 06:23:01;;;;;;;57.92;31.05;;;9.50;99.90;;;;;;5021003;28;20845;-75
2021/01/10 06:25:30;;;;;;;64.63;32.67;;;9.50;99.90;;;;;;5021451;28;20064;-72
2021/01/10 06:28:15;;;;;;;52.67;28.95;;;9.60;99.90;;;;;;5018413;28;20033;-74
2021/01/10 06:30:48;;;;;;;64.05;32.22;;;9.70;99.90;;;;;;5020156;28;20049;-75
2021/01/10 06:33:27;;;;;;;69.20;30.10;;;9.80;99.90;;;;;;5020924;28;20044;-75
2021/01/10 06:36:00;;;;;;;55.63;29.98;;;9.80;99.90;;;;;;5027942;28;20026;-74
2021/01/10 06:38:34;;;;;;;66.65;32.88;;;9.80;99.90;;;;;;5017634;28;20036;-75
2021/01/10 06:41:19;;;;;;;57.17;31.73;;;9.90;99.90;;;;;;5023252;28;20041;-73
2021/01/10 06:43:52;;;;;;;62.20;30.08;;;10.00;99.90;;;;;;5048742;28;20025;-72
2021/01/10 06:46:19;;;;;;;51.35;29.80;;;9.90;99.90;;;;;;5054323;28;20468;-71
2021/01/10 06:48:46;;;;;;;53.35;31.08;;;9.70;99.90;;;;;;5054077;28;20045;-72
2021/01/10 06:51:14;;;;;;;69.25;31.48;;;9.50;99.90;;;;;;5046811;28;20061;-72
2021/01/10 06:53:41;;;;;;;46.27;24.83;;;9.40;99.90;;;;;;5051047;28;20028;-70
2021/01/10 06:56:09;;;;;;;60.63;30.95;;;9.30;99.90;;;;;;5053433;28;20755;-72
2021/01/10 06:58:35;;;;;;;51.65;28.55;;;9.20;99.90;;;;;;5044869;28;20427;-71
2021/01/10 07:01:02;;;;;;;69.85;31.25;;;9.30;99.90;;;;;;5043886;28;20111;-72
2021/01/10 07:03:29;;;;;;;53.08;29.42;;;9.40;99.90;;;;;;5038233;28;20041;-72
2021/01/10 07:06:08;;;;;;;55.97;28.58;;;9.40;99.90;;;;;;5051414;28;20044;-72
2021/01/10 07:08:52;;;;;;;47.88;26.20;;;9.40;99.90;;;;;;5046347;28;20113;-72
2021/01/10 07:11:22;;;;;;;60.63;31.58;;;9.30;99.90;;;;;;5053372;28;20079;-72
2021/01/10 07:14:11;;;;;;;59.90;27.65;;;9.20;99.90;;;;;;5052675;28;20418;-70
2021/01/10 07:16:39;;;;;;;61.67;33.08;;;9.20;99.90;;;;;;5052777;28;20082;-72
2021/01/10 07:19:08;;;;;;;60.40;31.17;;;9.20;99.90;;;;;;5053638;28;20090;-72
2021/01/10 07:21:42;;;;;;;62.75;30.27;;;9.00;99.90;;;;;;5050038;28;20099;-71
2021/01/10 07:24:30;;;;;;;54.25;29.88;;;8.90;99.90;;;;;;5053334;28;20136;-72
2021/01/10 07:26:59;;;;;;;63.55;30.30;;;8.80;99.90;;;;;;5052591;28;20040;-71
2021/01/10 07:29:44;;;;;;;54.38;28.75;;;8.80;99.90;;;;;;5053517;28;20033;-73
2021/01/10 07:32:18;;;;;;;56.28;25.73;;;8.90;99.90;;;;;;5053281;28;20516;-71
2021/01/10 07:34:45;;;;;;;53.53;28.23;;;9.00;99.90;;;;;;5052311;28;20028;-72
2021/01/10 07:37:26;;;;;;;50.05;25.67;;;8.90;99.90;;;;;;5052232;28;20028;-72
2021/01/10 07:39:54;;;;;;;55.22;28.55;;;9.00;99.90;;;;;;5052780;28;20028;-72
2021/01/10 07:42:23;;;;;;;62.47;28.92;;;8.90;99.90;;;;;;5049168;28;20068;-72
2021/01/10 07:44:56;;;;;;;40.80;21.30;;;8.70;99.90;;;;;;5048959;28;20018;-72
2021/01/10 07:47:34;;;;;;;51.08;28.17;;;8.60;99.90;;;;;;5051788;28;20410;-71
2021/01/10 07:50:18;;;;;;;51.00;24.80;;;8.60;99.90;;;;;;5052641;28;20029;-74
2021/01/10 07:52:45;;;;;;;45.92;23.48;;;8.50;99.90;;;;;;5053096;28;20025;-71
2021/01/10 07:55:20;;;;;;;38.90;20.40;;;8.60;99.90;;;;;;5053534;28;20029;-72
2021/01/10 07:57:51;;;;;;;31.92;15.70;;;8.60;99.90;;;;;;5046863;28;20025;-72
2021/01/10 08:00:24;;;;;;;33.83;15.98;;;8.70;99.90;;;;;;5048775;28;20590;-72
2021/01/10 08:03:06;;;;;;;25.10;14.73;;;8.60;99.90;;;;;;5051232;28;20009;-73
2021/01/10 08:05:35;;;;;;;23.55;14.68;;;8.60;99.90;;;;;;5049027;28;20095;-72
2021/01/10 08:08:14;;;;;;;;;;;8.50;99.90;;;;;;5052995;28;20033;-72
2021/01/10 08:10:46;;;;;;;23.17;11.20;;;8.50;99.90;;;;;;5050021;28;19984;-73
2021/01/10 08:13:44;;;;;;;20.85;10.55;;;8.50;99.90;;;;;;5052586;28;20059;-72
2021/01/10 08:16:28;;;;;;;26.95;9.27;;;8.50;99.90;;;;;;5040231;28;20370;-72
2021/01/10 08:19:00;;;;;;;22.23;9.27;;;8.50;99.90;;;;;;5048641;28;20039;-72
2021/01/10 08:21:27;;;;;;;21.48;11.25;;;8.60;99.90;;;;;;5052439;28;20394;-72
2021/01/10 08:23:57;;;;;;;19.25;10.20;;;8.60;99.90;;;;;;5053401;28;20028;-74
2021/01/10 08:26:25;;;;;;;16.85;8.15;;;8.30;99.90;;;;;;5034295;28;20033;-72
2021/01/10 08:28:56;;;;;;;22.60;8.10;;;8.10;99.90;;;;;;5052724;28;20033;-71
2021/01/10 08:31:25;;;;;;;18.75;8.13;;;8.00;99.90;;;;;;5046702;28;20040;-73
2021/01/10 08:34:16;;;;;;;22.40;8.57;;;8.10;99.90;;;;;;5052288;28;20029;-72
2021/01/10 08:36:45;;;;;;;14.05;6.80;;;8.00;99.90;;;;;;5049155;28;20072;-71
2021/01/10 08:39:15;;;;;;;17.95;6.90;;;7.90;99.90;;;;;;5047114;28;20017;-71
2021/01/10 08:41:47;;;;;;;14.20;6.95;;;7.90;99.90;;;;;;5051407;28;20052;-71
2021/01/10 08:44:19;;;;;;;17.30;6.70;;;7.80;99.90;;;;;;5052016;28;20025;-72
2021/01/10 08:46:50;;;;;;;16.55;6.15;;;7.60;99.90;;;;;;5047374;28;20560;-72
2021/01/10 08:49:25;;;;;;;12.77;4.88;;;7.60;99.90;;;;;;5048760;28;20028;-71
2021/01/10 08:51:53;;;;;;;13.55;5.35;;;7.60;99.90;;;;;;5051145;28;20028;-72
2021/01/10 08:54:22;;;;;;;20.20;4.70;;;7.70;99.90;;;;;;5049287;28;20045;-72
2021/01/10 08:56:56;;;;;;;10.32;4.22;;;7.80;99.90;;;;;;5043272;28;20028;-72
2021/01/10 08:59:24;;;;;;;22.80;5.07;;;7.90;99.90;;;;;;5052156;28;20025;-71
2021/01/10 09:01:51;;;;;;;8.52;4.60;;;7.80;99.90;;;;;;5051932;28;20418;-72
2021/01/10 09:04:18;;;;;;;10.93;5.32;;;7.70;99.90;;;;;;5047072;28;20100;-73
2021/01/10 09:07:11;;;;;;;11.00;4.82;;;7.50;99.90;;;;;;5051436;28;20422;-73
2021/01/10 09:10:03;;;;;;;18.50;4.00;;;7.40;99.90;;;;;;5041210;28;20046;-72
2021/01/10 09:12:46;;;;;;;10.00;4.18;;;7.40;99.90;;;;;;5048674;28;20143;-72
2021/01/10 09:15:20;;;;;;;13.48;4.97;;;7.40;99.90;;;;;;5050709;28;20159;-71
2021/01/10 09:17:54;;;;;;;18.20;4.97;;;7.40;99.90;;;;;;5052013;28;20041;-73
2021/01/10 09:20:32;;;;;;;19.25;5.13;;;7.50;99.90;;;;;;5034133;28;20226;-73
2021/01/10 09:23:06;;;;;;;12.57;5.63;;;7.60;99.90;;;;;;5048809;28;20124;-72
2021/01/10 09:25:33;;;;;;;34.20;6.43;;;7.70;99.90;;;;;;5047440;28;20074;-72
2021/01/10 09:28:13;;;;;;;18.42;4.78;;;7.80;99.90;;;;;;5051747;28;20033;-73
2021/01/10 09:31:00;;;;;;;12.30;5.00;;;7.60;99.90;;;;;;5039134;28;20036;-72
2021/01/10 09:33:31;;;;;;;15.07;5.28;;;7.50;99.90;;;;;;5034132;28;20032;-72
2021/01/10 09:36:01;;;;;;;15.23;5.85;;;7.40;99.90;;;;;;5051690;28;20033;-73
2021/01/10 09:38:33;;;;;;;14.07;4.95;;;7.50;99.90;;;;;;5051790;28;20053;-71
2021/01/10 09:41:09;;;;;;;11.00;5.53;;;7.50;99.90;;;;;;5052116;28;20045;-71
2021/01/10 09:43:47;;;;;;;12.25;7.15;;;7.30;99.90;;;;;;5050718;28;20397;-71
2021/01/10 09:46:26;;;;;;;18.15;4.80;;;7.20;99.90;;;;;;5049130;28;20025;-70
2021/01/10 09:49:03;;;;;;;16.17;4.50;;;7.30;99.90;;;;;;5051565;28;20499;-70
2021/01/10 09:51:41;;;;;;;10.63;4.85;;;7.40;99.90;;;;;;5041928;28;20291;-71
2021/01/10 09:54:18;;;;;;;12.02;4.55;;;7.50;99.90;;;;;;5049769;28;20017;-71
2021/01/10 09:56:46;;;;;;;17.38;4.25;;;7.50;99.90;;;;;;5043361;28;20049;-73
2021/01/10 09:59:32;;;;;;;13.82;4.25;;;7.60;99.90;;;;;;5051299;28;20029;-72
2021/01/10 10:01:59;;;;;;;9.38;4.22;;;7.50;99.90;;;;;;5051652;28;20387;-71
2021/01/10 10:04:29;;;;;;;10.98;4.68;;;7.40;99.90;;;;;;5052130;28;20055;-71
2021/01/10 10:06:56;;;;;;;10.23;4.57;;;7.20;99.90;;;;;;5021253;28;20029;-70
2021/01/10 10:09:22;;;;;;;15.75;4.40;;;7.20;99.90;;;;;;5048603;28;20108;-71
2021/01/10 10:12:05;;;;;;;16.95;4.78;;;7.10;99.90;;;;;;5036608;28;20033;-69
2021/01/10 10:14:31;;;;;;;11.63;3.97;;;7.00;99.90;;;;;;5048360;28;20110;-71
2021/01/10 10:16:59;;;;;;;8.30;4.13;;;6.90;99.90;;;;;;5037882;28;20185;-70
2021/01/10 10:19:26;;;;;;;10.93;3.40;;;7.00;99.90;;;;;;5045404;28;20053;-71
2021/01/10 10:21:52;;;;;;;11.23;2.97;;;7.10;99.90;;;;;;5041790;28;20094;-70
2021/01/10 10:24:19;;;;;;;10.52;2.80;;;7.30;99.90;;;;;;5049496;28;20057;-70
2021/01/10 10:26:45;;;;;;;10.05;3.42;;;7.30;99.90;;;;;;5051878;28;20616;-70
2021/01/10 10:29:12;;;;;;;9.05;3.88;;;7.10;99.90;;;;;;5052349;28;20029;-69
2021/01/10 10:31:39;;;;;;;7.22;3.38;;;7.10;99.90;;;;;;5054518;28;20016;-69
2021/01/10 10:34:05;;;;;;;6.40;2.95;;;7.10;99.90;;;;;;5053590;28;20025;-71
2021/01/10 10:36:32;;;;;;;13.25;3.13;;;7.10;99.90;;;;;;5053753;28;20029;-70
2021/01/10 10:38:59;;;;;;;18.48;3.17;;;7.10;99.90;;;;;;5053739;28;20088;-71
2021/01/10 10:41:25;;;;;;;8.93;3.58;;;7.10;99.90;;;;;;5053295;28;20569;-69
2021/01/10 10:43:52;;;;;;;5.88;3.00;;;7.00;99.90;;;;;;5045655;28;20427;-69
2021/01/10 10:46:18;;;;;;;8.55;3.25;;;7.00;99.90;;;;;;5045636;28;20266;-69
2021/01/10 10:48:45;;;;;;;12.52;2.40;;;7.00;99.90;;;;;;5053508;28;20409;-70
2021/01/10 10:51:11;;;;;;;5.60;2.60;;;7.00;99.90;;;;;;5054573;28;20319;-71
2021/01/10 10:53:38;;;;;;;8.57;3.13;;;7.00;99.90;;;;;;5053420;28;20268;-70
2021/01/10 10:56:05;;;;;;;10.23;2.45;;;6.90;99.90;;;;;;5052963;28;20021;-69
2021/01/10 10:58:31;;;;;;;7.53;2.30;;;6.90;99.90;;;;;;5053114;28;20025;-70
2021/01/10 11:00:58;;;;;;;5.43;2.50;;;6.90;99.90;;;;;;5053798;28;20064;-71
2021/01/10 11:03:25;;;;;;;11.35;1.95;;;6.90;99.90;;;;;;5053277;28;20398;-69
2021/01/10 11:05:51;;;;;;;7.90;2.38;;;7.00;99.90;;;;;;5053163;28;20484;-70
2021/01/10 11:08:18;;;;;;;8.13;2.85;;;6.80;99.90;;;;;;5052946;28;20021;-70
2021/01/10 11:10:45;;;;;;;5.22;1.75;;;6.80;99.90;;;;;;5053382;28;20292;-70
2021/01/10 11:13:11;;;;;;;6.50;2.30;;;6.60;99.90;;;;;;5053666;28;20029;-71
2021/01/10 11:15:38;;;;;;;5.45;1.73;;;6.80;99.90;;;;;;5053021;28;20020;-71
2021/01/10 11:18:04;;;;;;;8.63;2.30;;;6.70;99.90;;;;;;5051949;28;20025;-70
2021/01/10 11:20:31;;;;;;;7.90;2.10;;;6.70;99.90;;;;;;5039022;28;20025;-70
2021/01/10 11:22:58;;;;;;;6.40;2.17;;;6.70;99.90;;;;;;5053095;28;20047;-70
2021/01/10 11:25:24;;;;;;;8.43;1.75;;;6.60;99.90;;;;;;5052460;28;20021;-71
2021/01/10 11:27:51;;;;;;;3.35;1.20;;;6.70;99.90;;;;;;5052843;28;20031;-70
2021/01/10 11:30:18;;;;;;;4.72;1.65;;;6.60;99.90;;;;;;5051686;28;20041;-71
2021/01/10 11:32:44;;;;;;;3.70;1.40;;;6.70;99.90;;;;;;5045103;28;20441;-72
2021/01/10 11:35:11;;;;;;;8.75;1.70;;;6.70;99.90;;;;;;5053930;28;20094;-73
2021/01/10 11:37:38;;;;;;;7.43;1.70;;;6.70;99.90;;;;;;5052001;28;20052;-71
2021/01/10 11:40:05;;;;;;;5.28;1.80;;;6.60;99.90;;;;;;5050046;28;20036;-70
2021/01/10 11:42:31;;;;;;;4.60;1.70;;;6.60;99.90;;;;;;5052502;28;20269;-71
2021/01/10 11:44:58;;;;;;;6.78;2.10;;;6.60;99.90;;;;;;5053020;28;20450;-73
2021/01/10 11:47:27;;;;;;;5.28;1.80;;;6.80;99.90;;;;;;5050048;28;20083;-71
2021/01/10 11:49:53;;;;;;;11.25;3.33;;;7.10;99.90;;;;;;5046672;28;20044;-71
2021/01/10 11:52:20;;;;;;;5.63;2.28;;;7.10;99.90;;;;;;5052200;28;20268;-71
2021/01/10 11:54:46;;;;;;;7.00;2.63;;;7.10;99.90;;;;;;5047328;28;20395;-71
2021/01/10 11:57:13;;;;;;;8.30;2.55;;;7.10;99.90;;;;;;5052365;28;20029;-72
2021/01/10 11:59:39;;;;;;;13.55;2.72;;;7.20;99.90;;;;;;5046631;28;20045;-71
2021/01/10 12:02:07;;;;;;;6.40;1.88;;;7.00;99.90;;;;;;5051093;28;20603;-71
2021/01/10 12:04:33;;;;;;;7.65;2.63;;;6.90;99.90;;;;;;5046305;28;20184;-70
2021/01/10 12:07:00;;;;;;;9.82;2.38;;;6.80;99.90;;;;;;5037997;28;20350;-71
2021/01/10 12:09:26;;;;;;;10.65;2.40;;;6.70;99.90;;;;;;5039342;28;20067;-71
2021/01/10 12:11:53;;;;;;;4.95;3.25;;;6.70;99.90;;;;;;5038829;28;20057;-71
2021/01/10 12:14:20;;;;;;;9.00;2.42;;;6.60;99.90;;;;;;5038554;28;20078;-71
2021/01/10 12:16:46;;;;;;;9.63;2.83;;;6.60;99.90;;;;;;5037507;28;20958;-71
2021/01/10 12:19:13;;;;;;;9.10;2.83;;;6.50;99.90;;;;;;5039169;28;20022;-71
2021/01/10 12:21:39;;;;;;;5.07;2.17;;;6.40;99.90;;;;;;5037449;28;20673;-71
2021/01/10 12:24:06;;;;;;;10.98;2.60;;;6.40;99.90;;;;;;5038533;28;20029;-71
2021/01/10 12:26:33;;;;;;;5.80;2.10;;;6.30;99.90;;;;;;5038697;28;20120;-71
2021/01/10 12:29:00;;;;;;;3.53;2.33;;;6.30;99.90;;;;;;5038519;28;20043;-70
2021/01/10 12:31:26;;;;;;;5.45;2.08;;;6.40;99.90;;;;;;5037284;28;20404;-71
2021/01/10 12:33:53;;;;;;;3.55;1.73;;;6.50;99.90;;;;;;5038208;28;20025;-70
2021/01/10 12:36:20;;;;;;;8.13;3.28;;;6.50;99.90;;;;;;5037843;28;20139;-70
2021/01/10 12:38:46;;;;;;;7.82;1.92;;;6.40;99.90;;;;;;5036765;28;20029;-70
2021/01/10 12:41:13;;;;;;;5.13;2.13;;;6.40;99.90;;;;;;5036912;28;20060;-70
2021/01/10 12:43:39;;;;;;;5.20;2.03;;;6.30;99.90;;;;;;5038149;28;20366;-69
2021/01/10 12:46:06;;;;;;;4.65;2.08;;;6.40;99.90;;;;;;5036708;28;20040;-70
2021/01/10 12:48:33;;;;;;;10.40;1.42;;;6.40;99.90;;;;;;5037787;28;20109;-70
2021/01/10 12:50:59;;;;;;;5.75;1.90;;;6.40;99.90;;;;;;5037072;28;20052;-69
2021/01/10 12:53:26;;;;;;;3.00;1.38;;;6.30;99.90;;;;;;5037876;28;20055;-70
2021/01/10 12:55:53;;;;;;;9.60;1.60;;;6.10;99.90;;;;;;5038632;28;20029;-72
2021/01/10 12:58:23;;;;;;;6.45;1.50;;;6.10;99.90;;;;;;5037706;28;20406;-70